Time;durP1;ratioP1;P1;durP2;ratioP2;P2;SDS_P1;SDS_P2;PMS_P1;PMS_P2;Temp;Humidity;BMP_temperature;BMP_pressure;BME280_temperature;BME280_humidity;BME280_pressure;Samples;Min_cycle;Max_cycle;Signal;HPM_P1;HPM_P2
2022/09/17 00:01:52;;;;;;;3.47;2.97;;;;;;;12.37;83.15;95466.38;4980919;28;20101;-59
2022/09/17 00:04:17;;;;;;;3.22;3.03;;;;;;;12.29;82.70;95468.97;4988786;28;20430;-60
2022/09/17 00:06:43;;;;;;;4.00;3.25;;;;;;;12.22;84.86;95471.44;4986286;28;20046;-60
2022/09/17 00:09:09;;;;;;;4.72;3.45;;;;;;;12.16;85.92;95485.25;4986230;28;20409;-60
2022/09/17 00:11:38;;;;;;;4.20;3.35;;;;;;;12.11;87.11;95477.00;4968721;28;20027;-60
2022/09/17 00:14:06;;;;;;;3.60;3.30;;;;;;;12.07;88.76;95478.28;4987416;28;20109;-60
2022/09/17 00:16:35;;;;;;;4.00;3.10;;;;;;;12.08;91.50;95487.84;4988315;28;20045;-58
2022/09/17 00:19:03;;;;;;;5.63;3.80;;;;;;;12.17;91.15;95481.63;4985079;28;20098;-54
2022/09/17 00:21:29;;;;;;;4.28;3.97;;;;;;;12.03;94.58;95475.94;4982247;28;20029;-55
2022/09/17 00:24:01;;;;;;;4.07;3.63;;;;;;;11.97;97.89;95481.81;4981972;28;20030;-58
2022/09/17 00:26:28;;;;;;;8.38;3.53;;;;;;;12.04;94.59;95480.22;4982309;28;20049;-58
2022/09/17 00:28:56;;;;;;;3.60;3.28;;;;;;;11.89;96.50;95485.22;4989727;28;20026;-58
2022/09/17 00:31:22;;;;;;;4.68;3.58;;;;;;;11.97;96.21;95487.09;4979279;28;20038;-58
2022/09/17 00:33:48;;;;;;;3.60;3.30;;;;;;;11.89;99.61;95502.88;4982186;28;20126;-58
2022/09/17 00:36:14;;;;;;;3.58;3.28;;;;;;;11.87;98.46;95502.22;4986423;28;20596;-59
2022/09/17 00:38:39;;;;;;;3.65;3.17;;;;;;;11.83;98.33;95503.50;4984072;28;20019;-58
2022/09/17 00:41:05;;;;;;;4.72;3.05;;;;;;;11.87;94.76;95507.50;4986574;28;20885;-57
2022/09/17 00:43:42;;;;;;;3.78;3.00;;;;;;;11.91;90.46;95514.09;4984211;28;20026;-58
2022/09/17 00:46:35;;;;;;;2.60;2.47;;;;;;;11.92;81.25;95514.91;4983646;28;20482;-59
2022/09/17 00:49:05;;;;;;;3.08;2.72;;;;;;;11.90;79.92;95512.44;4980188;28;20034;-58
2022/09/17 00:51:38;;;;;;;3.67;3.08;;;;;;;11.85;78.26;95523.44;4982077;28;20030;-59
2022/09/17 00:54:06;;;;;;;3.45;3.15;;;;;;;11.86;79.63;95532.22;4988176;28;20504;-58
2022/09/17 00:56:34;;;;;;;3.70;2.95;;;;;;;11.89;79.42;95531.91;4983343;28;20056;-58
2022/09/17 00:59:02;;;;;;;3.58;2.90;;;;;;;12.02;78.08;95542.06;4987907;28;20045;-58
2022/09/17 01:01:28;;;;;;;2.83;2.63;;;;;;;12.12;77.42;95531.41;4984703;28;20022;-58
2022/09/17 01:03:53;;;;;;;4.70;3.10;;;;;;;12.01;77.41;95535.13;4985357;28;20104;-57
2022/09/17 01:06:41;;;;;;;2.88;2.67;;;;;;;11.99;77.92;95534.44;4986174;28;20121;-57
2022/09/17 01:09:44;;;;;;;3.53;3.22;;;;;;;12.01;76.28;95527.22;4983966;28;20030;-58
2022/09/17 01:12:30;;;;;;;4.22;3.03;;;;;;;11.85;78.17;95535.84;4985299;28;20405;-58
2022/09/17 01:15:20;;;;;;;2.50;2.30;;;;;;;11.92;76.79;95536.03;4986587;28;20253;-57
2022/09/17 01:18:00;;;;;;;3.75;3.00;;;;;;;11.96;75.43;95530.28;4986835;28;20418;-58
2022/09/17 01:20:47;;;;;;;3.03;2.80;;;;;;;11.88;75.21;95538.97;4983863;28;20023;-58
2022/09/17 01:23:43;;;;;;;3.00;2.33;;;;;;;11.96;72.88;95540.84;4989461;28;20117;-57
2022/09/17 01:26:47;;;;;;;3.20;2.97;;;;;;;11.92;72.74;95536.03;4985175;28;20490;-54
2022/09/17 01:29:52;;;;;;;2.78;2.58;;;;;;;11.90;72.77;95539.63;4912407;29;20038;-58
2022/09/17 01:32:44;;;;;;;2.92;2.60;;;;;;;11.80;73.71;95532.81;4911157;29;20043;-55
2022/09/17 01:35:19;;;;;;;3.03;2.70;;;;;;;11.85;73.60;95534.00;4965490;28;20038;-57
2022/09/17 01:38:03;;;;;;;3.08;2.60;;;;;;;11.78;72.75;95525.06;4985838;28;20028;-58
2022/09/17 01:40:37;;;;;;;3.40;2.65;;;;;;;11.78;72.41;95532.13;4982517;28;20109;-57
2022/09/17 01:43:08;;;;;;;3.20;2.65;;;;;;;11.70;72.50;95533.72;4982879;28;20026;-57
2022/09/17 01:45:48;;;;;;;3.97;2.55;;;;;;;11.79;72.07;95526.72;4984473;28;20035;-58
2022/09/17 01:48:26;;;;;;;2.65;2.45;;;;;;;11.77;70.86;95539.22;4986676;28;20045;-56
2022/09/17 01:50:58;;;;;;;2.72;2.53;;;;;;;11.75;71.43;95544.66;4984486;28;20026;-58
2022/09/17 01:53:31;;;;;;;3.58;2.90;;;;;;;11.86;70.15;95532.22;4987610;28;20574;-58
2022/09/17 01:55:58;;;;;;;4.65;2.65;;;;;;;11.72;70.89;95542.31;4983984;28;20027;-58
2022/09/17 01:58:32;;;;;;;2.55;2.40;;;;;;;11.70;71.68;95556.63;4984452;28;20033;-57
2022/09/17 02:01:02;;;;;;;5.45;2.85;;;;;;;11.85;70.48;95551.66;4984984;28;20110;-57
2022/09/17 02:03:34;;;;;;;3.65;2.80;;;;;;;11.68;70.22;95535.69;4982766;28;20033;-52
2022/09/17 02:06:08;;;;;;;3.30;2.80;;;;;;;11.77;70.28;95554.22;4983794;28;20049;-58
2022/09/17 02:08:56;;;;;;;2.53;2.35;;;;;;;11.74;70.31;95550.91;4963986;28;20546;-58
2022/09/17 02:11:22;;;;;;;2.83;2.60;;;;;;;11.64;70.20;95544.06;4984577;28;20023;-58
2022/09/17 02:13:58;;;;;;;2.85;2.63;;;;;;;11.55;70.74;95543.16;4980692;28;20076;-56
2022/09/17 02:16:29;;;;;;;4.25;2.50;;;;;;;11.53;70.36;95543.31;4987221;28;20062;-57
2022/09/17 02:19:09;;;;;;;5.63;2.65;;;;;;;11.48;70.48;95552.66;4986482;28;20104;-56
2022/09/17 02:21:54;;;;;;;5.35;2.38;;;;;;;11.36;71.48;95537.06;4988613;28;20371;-57
2022/09/17 02:24:25;;;;;;;5.15;2.60;;;;;;;11.28;72.28;95548.38;4987907;28;20190;-58
2022/09/17 02:26:59;;;;;;;3.58;2.47;;;;;;;11.23;72.48;95560.34;4985984;28;20101;-57
2022/09/17 02:29:41;;;;;;;3.03;2.55;;;;;;;11.15;72.04;95546.06;4984443;28;20026;-57
2022/09/17 02:32:07;;;;;;;3.38;2.60;;;;;;;11.14;72.37;95549.69;4983982;28;20037;-57
2022/09/17 02:34:33;;;;;;;2.58;2.35;;;;;;;11.07;72.52;95553.91;4987507;28;20149;-57
2022/09/17 02:36:59;;;;;;;2.30;2.15;;;;;;;11.17;72.97;95569.66;4986339;28;20097;-57
2022/09/17 02:39:26;;;;;;;6.05;2.58;;;;;;;11.13;73.04;95569.13;4987565;28;20106;-57
2022/09/17 02:42:28;;;;;;;5.15;2.42;;;;;;;11.11;74.19;95575.53;4987293;28;20030;-56
2022/09/17 02:45:26;;;;;;;2.65;2.10;;;;;;;10.99;75.03;95578.34;4984398;28;20132;-56
2022/09/17 02:48:24;;;;;;;4.40;2.60;;;;;;;11.00;75.45;95573.94;4958083;28;20046;-55
2022/09/17 02:50:50;;;;;;;3.38;2.50;;;;;;;10.98;76.62;95579.31;4978842;28;20038;-57
2022/09/17 02:53:28;;;;;;;5.65;2.10;;;;;;;11.02;76.87;95556.16;4984702;28;20026;-57
2022/09/17 02:56:07;;;;;;;2.70;2.50;;;;;;;11.08;74.73;95565.28;4983123;28;20065;-57
2022/09/17 02:58:42;;;;;;;2.72;2.33;;;;;;;10.97;75.45;95574.22;4985782;28;20029;-57
2022/09/17 03:01:18;;;;;;;2.40;2.30;;;;;;;10.94;76.33;95585.03;4987333;28;20121;-56
2022/09/17 03:03:49;;;;;;;2.42;2.20;;;;;;;10.86;77.39;95577.88;4979434;28;20482;-58
2022/09/17 03:06:14;;;;;;;4.85;2.20;;;;;;;10.81;78.00;95586.22;4985943;28;20054;-57
2022/09/17 03:08:41;;;;;;;3.08;2.60;;;;;;;10.80;77.61;95584.56;4983764;28;20035;-58
2022/09/17 03:11:08;;;;;;;2.42;2.22;;;;;;;10.90;77.34;95587.16;4980135;28;20426;-58
2022/09/17 03:13:34;;;;;;;2.97;2.50;;;;;;;10.85;77.48;95592.84;4985481;28;20749;-57
2022/09/17 03:16:01;;;;;;;1.92;1.83;;;;;;;10.74;78.02;95598.31;4982914;28;20023;-56
2022/09/17 03:18:27;;;;;;;2.63;2.28;;;;;;;10.67;78.33;95599.84;4982512;28;20502;-56
2022/09/17 03:20:52;;;;;;;2.30;2.13;;;;;;;10.69;77.68;95603.16;4983746;28;20080;-58
2022/09/17 03:23:18;;;;;;;4.25;2.85;;;;;;;10.64;78.50;95600.13;4987444;28;20506;-56
2022/09/17 03:25:45;;;;;;;3.05;2.35;;;;;;;10.58;78.30;95599.75;4980990;28;20113;-56
2022/09/17 03:28:10;;;;;;;2.47;2.28;;;;;;;10.49;78.48;95595.34;4982115;28;20429;-58
2022/09/17 03:30:35;;;;;;;2.08;1.90;;;;;;;10.44;77.79;95580.00;4983515;28;20038;-58
2022/09/17 03:33:01;;;;;;;2.22;2.03;;;;;;;10.42;77.09;95591.63;4988014;28;20453;-58
2022/09/17 03:35:26;;;;;;;2.50;2.30;;;;;;;10.37;77.61;95586.75;4984570;28;20026;-58
2022/09/17 03:37:52;;;;;;;3.40;2.10;;;;;;;10.28;77.69;95588.47;4987712;28;20106;-57
2022/09/17 03:40:17;;;;;;;3.97;2.28;;;;;;;10.23;78.12;95593.31;4984451;28;20034;-57
2022/09/17 03:42:43;;;;;;;3.10;2.33;;;;;;;10.18;78.35;95595.53;4987683;28;20068;-56
2022/09/17 03:45:08;;;;;;;3.03;2.47;;;;;;;10.09;78.90;95591.94;4982766;28;20116;-56
2022/09/17 03:47:34;;;;;;;2.50;2.30;;;;;;;10.06;79.74;95586.13;4985375;28;20034;-58
2022/09/17 03:49:59;;;;;;;2.50;2.35;;;;;;;9.99;79.17;95589.34;4985847;28;20421;-57
2022/09/17 03:52:24;;;;;;;4.60;2.85;;;;;;;9.88;80.87;95586.88;4984820;28;20027;-56
2022/09/17 03:54:50;;;;;;;2.28;2.17;;;;;;;9.85;81.12;95595.03;4984453;28;20037;-57
2022/09/17 03:57:15;;;;;;;4.57;2.30;;;;;;;9.86;81.23;95587.00;4982405;28;20027;-57
2022/09/17 03:59:41;;;;;;;2.85;2.30;;;;;;;9.89;80.40;95599.88;4984447;28;20026;-57
2022/09/17 04:02:06;;;;;;;5.50;2.60;;;;;;;9.84;80.79;95580.25;4985837;28;20057;-57
2022/09/17 04:04:32;;;;;;;3.22;2.38;;;;;;;9.81;80.64;95588.38;4985198;28;20034;-58
2022/09/17 04:06:57;;;;;;;2.63;2.40;;;;;;;9.78;82.03;95588.66;4986535;28;20045;-57
2022/09/17 04:09:22;;;;;;;4.10;2.35;;;;;;;9.68;81.71;95592.13;4984939;28;20042;-57
2022/09/17 04:11:48;;;;;;;3.72;2.40;;;;;;;9.69;82.04;95591.16;4984956;28;20081;-56
2022/09/17 04:14:13;;;;;;;2.40;2.20;;;;;;;9.68;82.73;95592.13;4980184;28;20524;-57
2022/09/17 04:16:38;;;;;;;2.53;2.33;;;;;;;9.60;82.57;95603.34;4983899;28;20034;-57
2022/09/17 04:19:04;;;;;;;3.05;2.65;;;;;;;9.63;82.81;95610.13;4986976;28;20124;-57
2022/09/17 04:21:29;;;;;;;2.95;2.75;;;;;;;9.64;83.06;95610.94;4983894;28;20026;-58
2022/09/17 04:23:55;;;;;;;3.72;2.35;;;;;;;9.64;83.43;95616.22;4981817;28;20034;-57
2022/09/17 04:26:20;;;;;;;6.00;2.50;;;;;;;9.70;83.24;95619.13;4982967;28;20031;-57
2022/09/17 04:28:46;;;;;;;2.60;2.47;;;;;;;9.78;82.08;95612.31;4981976;28;20023;-56
2022/09/17 04:31:11;;;;;;;3.72;2.50;;;;;;;9.88;80.11;95615.81;4980743;28;20038;-56
2022/09/17 04:33:36;;;;;;;4.40;2.60;;;;;;;9.92;79.90;95613.69;4986548;28;20218;-57
2022/09/17 04:36:02;;;;;;;3.20;2.22;;;;;;;9.94;79.53;95615.22;4984494;28;20390;-56
2022/09/17 04:38:28;;;;;;;4.03;2.10;;;;;;;9.96;77.67;95621.19;4966916;28;20023;-56
2022/09/17 04:40:56;;;;;;;2.38;2.20;;;;;;;9.99;78.37;95620.09;4985128;28;20022;-58
2022/09/17 04:43:21;;;;;;;2.58;2.38;;;;;;;9.98;78.85;95613.97;4986927;28;20577;-58
2022/09/17 04:45:48;;;;;;;2.70;2.22;;;;;;;10.18;75.76;95612.16;4984852;28;20030;-58
2022/09/17 04:48:13;;;;;;;3.50;2.60;;;;;;;10.30;74.54;95615.47;4993193;28;20532;-57
2022/09/17 04:50:39;;;;;;;2.72;2.40;;;;;;;10.30;73.65;95617.25;4988985;28;20109;-57
2022/09/17 04:53:04;;;;;;;2.92;2.55;;;;;;;10.47;72.92;95618.34;4987418;28;20113;-55
2022/09/17 04:55:30;;;;;;;2.90;2.30;;;;;;;10.47;72.70;95626.22;4986310;28;20033;-58
2022/09/17 04:57:55;;;;;;;2.45;2.30;;;;;;;10.36;73.47;95624.56;4983219;28;20022;-57
2022/09/17 05:00:22;;;;;;;5.20;2.42;;;;;;;10.30;73.08;95630.41;4983065;28;20038;-57
2022/09/17 05:02:52;;;;;;;2.72;2.28;;;;;;;10.38;72.84;95634.97;4984314;28;20053;-56
2022/09/17 05:05:18;;;;;;;2.92;2.42;;;;;;;10.24;72.67;95633.63;4988349;28;20045;-57
2022/09/17 05:07:43;;;;;;;4.63;1.88;;;;;;;10.27;72.95;95639.41;4988161;28;20050;-58
2022/09/17 05:10:10;;;;;;;2.30;2.10;;;;;;;10.30;72.25;95631.25;4983704;28;20491;-56
2022/09/17 05:12:36;;;;;;;3.22;2.30;;;;;;;10.18;73.39;95629.75;4982860;28;20050;-56
2022/09/17 05:15:02;;;;;;;4.63;2.03;;;;;;;10.21;72.81;95631.28;4988568;28;20474;-57
2022/09/17 05:17:27;;;;;;;6.38;2.28;;;;;;;10.23;72.44;95630.13;4988697;28;20035;-55
2022/09/17 05:19:52;;;;;;;2.00;1.90;;;;;;;10.19;73.16;95644.56;4986375;28;20030;-58
2022/09/17 05:22:19;;;;;;;2.30;2.10;;;;;;;10.27;72.31;95654.38;4984732;28;20548;-57
2022/09/17 05:24:45;;;;;;;2.13;1.95;;;;;;;10.24;71.67;95647.59;4989086;28;20585;-57
2022/09/17 05:27:10;;;;;;;3.20;2.20;;;;;;;10.08;73.81;95652.59;4988489;28;20121;-56
2022/09/17 05:29:36;;;;;;;2.05;1.90;;;;;;;10.11;73.03;95649.69;4985929;28;20405;-57
2022/09/17 05:32:03;;;;;;;2.17;2.00;;;;;;;9.96;73.99;95642.22;4986296;28;20023;-56
2022/09/17 05:34:28;;;;;;;1.90;1.80;;;;;;;9.92;74.31;95648.72;4987444;28;20023;-58
2022/09/17 05:36:53;;;;;;;1.90;1.73;;;;;;;9.88;75.02;95669.22;4988152;28;20031;-57
2022/09/17 05:39:21;;;;;;;2.45;2.20;;;;;;;9.92;73.86;95661.88;4985500;28;20046;-57
2022/09/17 05:41:47;;;;;;;2.97;2.10;;;;;;;9.85;74.72;95680.00;4985140;28;20506;-56
2022/09/17 05:44:12;;;;;;;4.88;2.17;;;;;;;9.82;75.44;95668.91;4985349;28;20077;-57
2022/09/17 05:46:38;;;;;;;3.85;2.42;;;;;;;9.80;75.91;95676.13;4981434;28;20074;-58
2022/09/17 05:49:03;;;;;;;2.03;1.80;;;;;;;9.79;76.20;95677.09;4990900;28;20026;-57
2022/09/17 05:51:29;;;;;;;2.38;2.13;;;;;;;9.82;76.95;95680.28;4985710;28;20026;-57
2022/09/17 05:53:55;;;;;;;2.00;1.90;;;;;;;9.86;77.36;95686.09;4986407;28;20109;-56
2022/09/17 05:56:20;;;;;;;2.25;1.90;;;;;;;9.84;77.21;95677.53;4984180;28;20062;-57
2022/09/17 05:58:46;;;;;;;2.78;2.00;;;;;;;9.90;76.13;95682.22;4986471;28;20150;-57
2022/09/17 06:01:14;;;;;;;3.17;2.33;;;;;;;9.91;74.47;95683.88;4984502;28;20026;-57
2022/09/17 06:03:40;;;;;;;2.25;1.92;;;;;;;9.94;73.68;95690.66;4985402;28;20034;-56
2022/09/17 06:06:06;;;;;;;3.45;2.10;;;;;;;9.91;73.96;95694.41;4986240;28;20038;-57
2022/09/17 06:08:35;;;;;;;2.78;1.80;;;;;;;9.89;74.49;95699.78;4984048;28;20018;-57
2022/09/17 06:11:04;;;;;;;3.28;2.00;;;;;;;9.92;74.93;95697.84;4987621;28;20045;-57
2022/09/17 06:13:30;;;;;;;2.67;1.67;;;;;;;9.95;76.63;95708.13;4985406;28;20023;-56
2022/09/17 06:15:55;;;;;;;3.90;1.80;;;;;;;9.97;76.54;95706.19;4988352;28;20367;-55
2022/09/17 06:18:21;;;;;;;3.08;2.10;;;;;;;10.00;76.67;95709.34;4987576;28;20414;-57
2022/09/17 06:20:56;;;;;;;1.90;1.80;;;;;;;9.94;75.28;95709.91;4985343;28;20088;-58
2022/09/17 06:23:22;;;;;;;;;;;;;;;9.89;75.37;95710.31;4986660;28;20486;-57
2022/09/17 06:25:55;;;;;;;4.13;1.73;;;;;;;9.88;75.57;95713.91;4988938;28;20309;-58
2022/09/17 06:28:21;;;;;;;1.88;1.77;;;;;;;9.87;74.92;95714.06;4985762;28;20037;-57
2022/09/17 06:30:47;;;;;;;2.05;1.90;;;;;;;9.83;74.19;95720.53;4985164;28;20035;-56
2022/09/17 06:33:13;;;;;;;1.90;1.80;;;;;;;9.87;74.07;95716.69;4984730;28;20359;-56
2022/09/17 06:35:38;;;;;;;4.13;1.70;;;;;;;9.83;73.92;95720.53;4987412;28;20038;-57
2022/09/17 06:38:05;;;;;;;1.70;1.60;;;;;;;9.89;74.28;95722.66;4983006;28;20036;-56
2022/09/17 06:40:31;;;;;;;1.60;1.50;;;;;;;9.98;74.06;95713.91;4985256;28;20494;-56
2022/09/17 06:43:00;;;;;;;1.85;1.75;;;;;;;9.97;75.05;95720.16;4987676;28;20520;-57
2022/09/17 06:45:26;;;;;;;1.90;1.80;;;;;;;9.97;74.97;95709.63;4982109;28;20031;-57
2022/09/17 06:47:52;;;;;;;2.65;1.55;;;;;;;10.04;74.71;95713.34;4985831;28;20494;-56
2022/09/17 06:50:17;;;;;;;2.53;1.73;;;;;;;9.99;74.57;95715.56;4984901;28;20029;-56
2022/09/17 06:52:53;;;;;;;1.90;1.80;;;;;;;10.02;75.65;95720.56;4984770;28;20101;-56
2022/09/17 06:55:19;;;;;;;1.88;1.77;;;;;;;10.07;75.57;95725.41;4985833;28;20117;-57
2022/09/17 06:57:45;;;;;;;1.98;1.88;;;;;;;10.08;75.04;95728.88;4984412;28;20415;-58
2022/09/17 07:00:11;;;;;;;1.70;1.60;;;;;;;10.17;74.62;95735.94;4982270;28;20031;-55
2022/09/17 07:02:37;;;;;;;1.92;1.75;;;;;;;10.24;74.54;95737.03;4982823;28;20027;-57
2022/09/17 07:05:02;;;;;;;1.60;1.60;;;;;;;10.32;74.33;95737.19;4989695;28;20105;-55
2022/09/17 07:07:28;;;;;;;1.40;1.40;;;;;;;10.40;71.84;95735.66;4987741;28;20425;-56
2022/09/17 07:09:53;;;;;;;1.30;1.25;;;;;;;10.47;70.98;95736.78;4987583;28;20030;-58
2022/09/17 07:12:19;;;;;;;5.40;1.80;;;;;;;10.88;69.37;95731.31;4987490;28;20482;-56
2022/09/17 07:14:46;;;;;;;1.50;1.40;;;;;;;11.00;68.94;95721.44;4984689;28;20053;-57
2022/09/17 07:17:12;;;;;;;3.22;1.35;;;;;;;11.26;67.15;95726.06;4989399;28;20027;-57
2022/09/17 07:19:37;;;;;;;1.50;1.40;;;;;;;11.21;67.29;95730.94;4987696;28;20458;-58
2022/09/17 07:22:03;;;;;;;2.80;1.60;;;;;;;11.15;66.54;95730.53;4988783;28;20035;-57
2022/09/17 07:24:28;;;;;;;1.20;1.20;;;;;;;11.10;66.05;95727.50;4986154;28;20065;-57
2022/09/17 07:26:54;;;;;;;1.35;1.25;;;;;;;11.28;66.28;95729.38;4988389;28;20034;-57
2022/09/17 07:29:20;;;;;;;1.55;1.45;;;;;;;11.35;65.09;95721.72;4987065;28;20133;-57
2022/09/17 07:31:45;;;;;;;1.30;1.30;;;;;;;11.33;64.56;95719.22;4989079;28;20049;-58
2022/09/17 07:34:11;;;;;;;1.75;1.60;;;;;;;11.44;65.92;95724.31;4987792;28;20498;-57
2022/09/17 07:36:36;;;;;;;2.72;1.48;;;;;;;11.50;66.41;95730.81;4988707;28;20038;-56
2022/09/17 07:39:02;;;;;;;1.35;1.25;;;;;;;11.62;64.59;95723.53;4985729;28;20417;-56
2022/09/17 07:41:27;;;;;;;1.73;1.63;;;;;;;11.71;63.61;95716.50;4986872;28;20121;-58
2022/09/17 07:43:54;;;;;;;6.15;4.40;;;;;;;11.46;64.61;95716.25;4987264;28;20041;-55
2022/09/17 07:46:19;;;;;;;2.60;1.80;;;;;;;11.48;63.00;95706.38;4985330;28;20054;-56
2022/09/17 07:48:46;;;;;;;3.13;1.95;;;;;;;11.49;64.77;95708.03;4989169;28;20105;-60
2022/09/17 07:51:20;;;;;;;2.72;1.45;;;;;;;11.51;63.62;95710.53;4985685;28;20088;-58
2022/09/17 07:53:46;;;;;;;1.50;1.40;;;;;;;11.41;63.37;95711.44;4971639;28;20034;-61
2022/09/17 07:56:12;;;;;;;2.45;1.70;;;;;;;11.46;63.36;95718.88;4981237;28;20089;-60
2022/09/17 07:58:37;;;;;;;1.42;1.30;;;;;;;11.38;64.52;95708.25;4984293;28;20034;-59
2022/09/17 08:01:07;;;;;;;1.48;1.38;;;;;;;11.41;63.92;95716.69;4987764;28;20486;-60
2022/09/17 08:03:34;;;;;;;1.65;1.40;;;;;;;11.42;64.19;95722.78;4988079;28;20034;-60
2022/09/17 08:06:11;;;;;;;2.97;1.92;;;;;;;11.43;63.46;95724.44;4984095;28;20070;-54
2022/09/17 08:08:38;;;;;;;1.42;1.20;;;;;;;11.37;64.68;95731.13;4981018;28;20097;-54
2022/09/17 08:11:15;;;;;;;1.67;1.58;;;;;;;11.66;65.59;95731.97;4983066;28;20038;-52
2022/09/17 08:13:41;;;;;;;1.60;1.40;;;;;;;11.83;64.22;95728.53;4983490;28;20371;-60
2022/09/17 08:16:10;;;;;;;3.00;1.45;;;;;;;12.02;63.66;95732.03;4985897;28;20391;-59
2022/09/17 08:18:36;;;;;;;1.42;1.33;;;;;;;12.14;63.92;95727.38;4986089;28;20437;-59
2022/09/17 08:21:03;;;;;;;1.90;1.45;;;;;;;12.44;62.38;95735.88;4989463;28;20042;-58
2022/09/17 08:23:30;;;;;;;1.67;1.30;;;;;;;12.49;61.19;95727.50;4988799;28;20027;-58
2022/09/17 08:25:58;;;;;;;1.75;1.40;;;;;;;12.60;60.28;95728.09;4975386;28;20498;-60
2022/09/17 08:28:25;;;;;;;3.55;1.05;;;;;;;12.82;61.11;95739.13;4988256;28;20026;-60
2022/09/17 08:30:51;;;;;;;4.35;1.45;;;;;;;13.04;61.24;95731.66;4991988;28;20041;-59
2022/09/17 08:33:17;;;;;;;1.85;1.50;;;;;;;13.14;57.20;95727.09;4994350;28;20030;-58
2022/09/17 08:35:50;;;;;;;1.58;1.45;;;;;;;13.17;59.76;95731.25;4989698;28;20089;-59
2022/09/17 08:38:15;;;;;;;1.33;1.27;;;;;;;13.29;59.34;95731.81;4988325;28;20030;-59
2022/09/17 08:40:55;;;;;;;1.30;1.20;;;;;;;13.50;57.93;95717.38;4991655;28;20030;-55
2022/09/17 08:43:21;;;;;;;1.63;1.20;;;;;;;13.34;57.18;95724.22;4990918;28;20054;-56
2022/09/17 08:45:53;;;;;;;1.67;1.58;;;;;;;13.45;56.38;95720.50;4992629;28;20026;-59
2022/09/17 08:48:19;;;;;;;2.05;1.63;;;;;;;13.44;56.70;95722.31;4993589;28;20444;-59
2022/09/17 08:50:44;;;;;;;2.38;1.40;;;;;;;13.64;55.64;95723.88;4990314;28;20014;-60
2022/09/17 08:53:30;;;;;;;2.35;1.27;;;;;;;13.58;54.97;95723.53;4993290;28;20026;-59
2022/09/17 08:56:05;;;;;;;1.42;1.38;;;;;;;13.62;55.18;95724.06;4989559;28;20030;-59
2022/09/17 08:58:41;;;;;;;1.40;1.30;;;;;;;13.77;56.12;95739.28;4986845;28;20053;-59
2022/09/17 09:01:26;;;;;;;1.17;1.08;;;;;;;13.80;55.70;95737.16;4984119;28;20421;-58
2022/09/17 09:04:10;;;;;;;1.48;1.20;;;;;;;13.83;55.35;95728.09;4988748;28;20030;-60
2022/09/17 09:06:48;;;;;;;1.20;1.20;;;;;;;13.94;55.82;95733.06;4989767;28;20047;-59
2022/09/17 09:09:17;;;;;;;2.80;1.20;;;;;;;14.03;55.71;95729.44;4990373;28;20061;-59
2022/09/17 09:11:47;;;;;;;2.20;1.35;;;;;;;13.97;56.33;95734.56;4986534;28;20502;-58
2022/09/17 09:14:26;;;;;;;1.17;1.10;;;;;;;14.00;55.59;95726.28;4990929;28;20030;-59
2022/09/17 09:16:54;;;;;;;1.77;1.23;;;;;;;13.94;55.67;95727.75;4988968;28;20121;-59
2022/09/17 09:19:29;;;;;;;2.40;1.30;;;;;;;14.07;56.07;95737.06;4987383;28;20034;-59
2022/09/17 09:22:04;;;;;;;1.20;1.10;;;;;;;14.01;55.46;95730.59;4992356;28;20023;-60
2022/09/17 09:25:08;;;;;;;1.60;1.20;;;;;;;14.00;53.62;95728.94;4990627;28;20077;-60
2022/09/17 09:27:59;;;;;;;1.10;1.08;;;;;;;13.94;52.54;95733.06;4991924;28;20186;-60
2022/09/17 09:30:36;;;;;;;1.02;1.02;;;;;;;13.59;53.26;95729.63;4991176;28;20057;-60
2022/09/17 09:33:13;;;;;;;1.00;1.00;;;;;;;13.71;53.57;95725.72;4986599;28;20042;-60
2022/09/17 09:35:41;;;;;;;1.63;1.10;;;;;;;13.72;51.27;95722.09;4988450;28;20022;-59
2022/09/17 09:38:19;;;;;;;1.27;1.00;;;;;;;13.82;52.59;95724.59;4990632;28;20529;-59
2022/09/17 09:40:56;;;;;;;1.20;1.20;;;;;;;13.85;52.45;95718.97;4990338;28;20512;-60
2022/09/17 09:44:05;;;;;;;1.58;1.38;;;;;;;13.78;53.81;95719.78;4985004;28;20038;-59
2022/09/17 09:46:42;;;;;;;1.20;1.00;;;;;;;13.72;53.26;95727.38;4906448;29;20087;-59
2022/09/17 09:49:32;;;;;;;1.35;1.13;;;;;;;13.89;52.80;95730.06;4905571;29;20032;-58
2022/09/17 09:52:34;;;;;;;1.10;1.10;;;;;;;13.77;51.71;95731.34;4960759;28;20034;-60
2022/09/17 09:55:09;;;;;;;0.98;0.98;;;;;;;14.04;50.97;95748.78;4980775;28;20037;-60
2022/09/17 09:58:08;;;;;;;1.10;1.10;;;;;;;14.00;49.99;95716.53;4988849;28;20023;-60
2022/09/17 10:00:38;;;;;;;3.63;1.90;;;;;;;14.00;53.58;95729.75;4968919;28;20034;-59
2022/09/17 10:03:25;;;;;;;2.53;1.52;;;;;;;14.26;50.78;95728.81;4990239;28;20030;-59
2022/09/17 10:06:09;;;;;;;1.10;1.10;;;;;;;14.20;49.85;95728.66;4989709;28;20043;-60
2022/09/17 10:08:37;;;;;;;1.52;1.10;;;;;;;14.29;50.69;95725.84;4987720;28;20033;-57
2022/09/17 10:11:04;;;;;;;1.65;1.35;;;;;;;14.47;50.87;95730.13;4990106;28;20045;-59
2022/09/17 10:13:34;;;;;;;1.00;1.00;;;;;;;14.49;49.97;95730.81;4989317;28;20037;-60
2022/09/17 10:16:24;;;;;;;1.33;1.23;;;;;;;14.64;47.75;95727.50;4989903;28;20026;-60
2022/09/17 10:19:04;;;;;;;1.13;1.13;;;;;;;14.40;50.36;95726.50;4991316;28;20023;-60
2022/09/17 10:21:35;;;;;;;1.65;1.33;;;;;;;14.52;49.26;95719.91;4988865;28;20026;-60
2022/09/17 10:24:03;;;;;;;2.35;1.20;;;;;;;14.66;47.72;95734.28;4987993;28;20043;-59
2022/09/17 10:26:35;;;;;;;2.22;1.20;;;;;;;14.64;49.42;95738.09;4990813;28;20014;-60
2022/09/17 10:29:03;;;;;;;4.22;1.08;;;;;;;14.77;48.98;95733.16;4982779;28;20027;-60
2022/09/17 10:31:47;;;;;;;2.58;0.93;;;;;;;14.69;48.12;95725.16;4988144;28;20490;-59
2022/09/17 10:34:23;;;;;;;1.10;1.10;;;;;;;14.81;49.75;95738.94;4987053;28;20498;-59
2022/09/17 10:36:49;;;;;;;1.25;1.15;;;;;;;14.97;49.27;95724.84;4989357;28;20037;-60
2022/09/17 10:39:43;;;;;;;0.90;0.90;;;;;;;15.30;45.38;95744.16;4989474;28;20023;-59
2022/09/17 10:42:15;;;;;;;4.00;1.08;;;;;;;15.37;46.77;95736.34;4988002;28;20084;-59
2022/09/17 10:44:54;;;;;;;1.02;1.02;;;;;;;15.28;45.82;95743.50;4986602;28;20023;-59
2022/09/17 10:47:28;;;;;;;0.93;0.93;;;;;;;15.59;45.89;95741.91;4989271;28;20023;-60
2022/09/17 10:50:00;;;;;;;1.23;1.20;;;;;;;15.57;46.30;95738.56;4973176;28;20525;-60
2022/09/17 10:52:41;;;;;;;0.90;0.90;;;;;;;15.67;47.76;95731.25;4987923;28;20097;-59
2022/09/17 10:55:45;;;;;;;2.05;1.10;;;;;;;15.97;46.54;95736.75;4986982;28;20125;-60
2022/09/17 10:58:36;;;;;;;1.33;1.23;;;;;;;16.38;46.43;95725.06;4988039;28;20034;-59
2022/09/17 11:01:04;;;;;;;1.70;0.90;;;;;;;16.32;44.83;95721.28;4986251;28;20042;-60
2022/09/17 11:03:41;;;;;;;1.00;1.00;;;;;;;16.03;45.42;95725.47;4988960;28;20023;-59
2022/09/17 11:06:18;;;;;;;1.13;1.02;;;;;;;16.14;44.36;95729.53;4983368;28;20493;-60
2022/09/17 11:08:58;;;;;;;2.70;1.00;;;;;;;16.50;43.52;95736.09;4988919;28;20022;-59
2022/09/17 11:11:41;;;;;;;1.35;0.90;;;;;;;16.52;44.69;95742.06;4987147;28;20059;-60
2022/09/17 11:14:16;;;;;;;4.15;0.93;;;;;;;16.94;43.63;95742.53;4989172;28;20085;-60
2022/09/17 11:16:57;;;;;;;0.90;0.90;;;;;;;17.08;43.76;95742.78;4987583;28;20033;-60
2022/09/17 11:19:25;;;;;;;2.22;1.10;;;;;;;17.08;42.32;95742.78;4985125;28;20031;-60
2022/09/17 11:22:01;;;;;;;0.80;0.80;;;;;;;17.31;40.27;95735.53;4988453;28;20034;-59
2022/09/17 11:24:32;;;;;;;0.75;0.75;;;;;;;17.66;40.41;95742.13;4986513;28;20113;-59
2022/09/17 11:27:13;;;;;;;1.08;0.85;;;;;;;17.26;40.66;95739.75;4987601;28;20386;-59
2022/09/17 11:29:48;;;;;;;0.90;0.90;;;;;;;17.28;41.34;95753.69;4988375;28;20053;-60
2022/09/17 11:32:32;;;;;;;1.17;1.07;;;;;;;17.30;41.93;95744.53;4989560;28;20030;-60
2022/09/17 11:35:11;;;;;;;2.42;0.93;;;;;;;17.35;42.32;95743.97;4990198;28;20030;-60
2022/09/17 11:37:56;;;;;;;3.47;0.90;;;;;;;17.42;40.53;95752.03;4989353;28;20568;-60
2022/09/17 11:40:35;;;;;;;1.02;0.90;;;;;;;16.82;42.73;95754.63;4988226;28;20034;-60
2022/09/17 11:43:03;;;;;;;0.80;0.80;;;;;;;16.41;43.32;95755.75;4987651;28;20469;-60
2022/09/17 11:45:35;;;;;;;0.93;0.93;;;;;;;16.86;41.67;95758.56;4987743;28;20112;-60
2022/09/17 11:48:16;;;;;;;1.00;0.95;;;;;;;16.94;40.64;95744.38;4989176;28;20057;-59
2022/09/17 11:50:48;;;;;;;0.93;0.73;;;;;;;17.08;42.38;95748.91;4987983;28;20093;-59
2022/09/17 11:53:45;;;;;;;2.85;0.70;;;;;;;17.24;41.79;95755.06;4988365;28;20037;-58
2022/09/17 11:56:21;;;;;;;2.33;1.00;;;;;;;17.23;42.95;95753.41;4984649;28;20085;-60